Time;durP1;ratioP1;P1;durP2;ratioP2;P2;SDS_P1;SDS_P2;PMS_P1;PMS_P2;Temp;Humidity;BMP_temperature;BMP_pressure;BME280_temperature;BME280_humidity;BME280_pressure;Samples;Min_cycle;Max_cycle;Signal;HPM_P1;HPM_P2
2020/12/25 00:00:07;;;;;;;0.00;0.00;;;4.40;84.30;;;;;;4998315;28;20035;-84
2020/12/25 00:02:42;;;;;;;0.10;0.10;;;4.40;84.30;;;;;;5008146;28;20046;-86
2020/12/25 00:05:09;;;;;;;0.30;0.13;;;4.40;84.40;;;;;;5009685;28;20336;-85
2020/12/25 00:07:39;;;;;;;0.00;0.00;;;4.30;84.40;;;;;;5009361;28;20042;-84
2020/12/25 00:10:33;;;;;;;0.00;0.00;;;4.30;84.50;;;;;;5025700;28;20046;-83
2020/12/25 00:13:05;;;;;;;0.00;0.00;;;4.30;84.60;;;;;;5026590;28;20049;-85
2020/12/25 00:15:31;;;;;;;0.00;0.00;;;4.20;84.60;;;;;;5005042;28;20033;-85
2020/12/25 00:18:00;;;;;;;0.00;0.00;;;4.20;84.70;;;;;;4984479;28;20310;-86
2020/12/25 00:20:33;;;;;;;0.00;0.00;;;4.20;84.70;;;;;;5023139;28;20033;-84
2020/12/25 00:23:04;;;;;;;0.00;0.00;;;4.20;84.70;;;;;;5024857;28;20042;-84
2020/12/25 00:25:38;;;;;;;0.40;0.27;;;4.20;84.80;;;;;;5018257;28;20042;-84
2020/12/25 00:28:07;;;;;;;0.00;0.00;;;4.20;84.80;;;;;;5011431;28;20050;-85
2020/12/25 00:30:33;;;;;;;0.00;0.00;;;4.10;84.70;;;;;;4997154;28;20054;-84
2020/12/25 00:33:01;;;;;;;0.00;0.00;;;4.10;84.80;;;;;;4998252;28;20026;-84
2020/12/25 00:35:28;;;;;;;0.00;0.00;;;4.10;84.70;;;;;;5004603;28;20229;-85
2020/12/25 00:37:54;;;;;;;0.00;0.00;;;4.10;84.80;;;;;;4983612;28;20042;-85
2020/12/25 00:40:21;;;;;;;0.20;0.03;;;4.00;84.70;;;;;;4985044;28;20307;-85
2020/12/25 00:42:48;;;;;;;0.00;0.00;;;4.00;84.70;;;;;;4982877;28;20314;-85
2020/12/25 00:45:14;;;;;;;0.00;0.00;;;4.00;84.70;;;;;;5007525;28;20040;-85
2020/12/25 00:47:41;;;;;;;0.00;0.00;;;4.00;84.70;;;;;;5015843;28;20022;-85
2020/12/25 00:50:10;;;;;;;0.00;0.00;;;4.00;84.80;;;;;;5001382;28;20218;-85
2020/12/25 00:52:38;;;;;;;0.20;0.17;;;4.00;84.80;;;;;;4996027;28;20051;-85
2020/12/25 00:55:04;;;;;;;0.00;0.00;;;4.00;84.80;;;;;;4997620;28;20034;-85
2020/12/25 00:57:31;;;;;;;0.00;0.00;;;4.00;84.80;;;;;;4998257;28;20064;-85
2020/12/25 00:59:57;;;;;;;0.00;0.00;;;4.00;84.90;;;;;;4997260;28;20448;-86
2020/12/25 01:02:28;;;;;;;0.00;0.00;;;4.00;84.90;;;;;;4995188;28;20037;-85
2020/12/25 01:04:55;;;;;;;0.08;0.05;;;4.00;85.00;;;;;;4996133;28;20034;-84
2020/12/25 01:07:21;;;;;;;0.27;0.00;;;4.00;85.00;;;;;;5002204;28;20019;-85
2020/12/25 01:09:48;;;;;;;0.00;0.00;;;3.90;84.90;;;;;;5010994;28;20010;-85
2020/12/25 01:12:17;;;;;;;0.00;0.00;;;3.90;85.00;;;;;;5006425;28;20031;-85
2020/12/25 01:14:43;;;;;;;0.00;0.00;;;3.90;85.00;;;;;;4988272;28;20026;-85
2020/12/25 01:17:10;;;;;;;0.00;0.00;;;3.90;85.00;;;;;;4985893;28;20035;-85
2020/12/25 01:19:36;;;;;;;0.03;0.00;;;3.90;85.00;;;;;;4981896;28;20230;-85
2020/12/25 01:22:02;;;;;;;0.00;0.00;;;3.80;85.00;;;;;;4995263;28;20037;-84
2020/12/25 01:24:29;;;;;;;0.00;0.00;;;3.80;85.00;;;;;;4991610;28;20026;-85
2020/12/25 01:26:55;;;;;;;0.00;0.00;;;3.80;85.00;;;;;;4976676;28;20069;-84
2020/12/25 01:29:21;;;;;;;0.63;0.07;;;3.80;85.10;;;;;;4987980;28;20027;-85
2020/12/25 01:31:48;;;;;;;0.87;0.10;;;3.80;85.00;;;;;;4994018;28;20041;-85
2020/12/25 01:34:14;;;;;;;0.00;0.00;;;3.80;85.00;;;;;;5004427;28;20031;-85
2020/12/25 01:36:40;;;;;;;0.00;0.00;;;3.80;85.00;;;;;;4997060;28;20018;-85
2020/12/25 01:39:07;;;;;;;0.00;0.00;;;3.80;85.10;;;;;;4987666;28;20031;-85
2020/12/25 01:41:33;;;;;;;0.07;0.00;;;3.80;85.00;;;;;;4994483;28;20313;-83
2020/12/25 01:44:00;;;;;;;0.07;0.07;;;3.70;84.90;;;;;;4992691;28;20031;-85
2020/12/25 01:46:26;;;;;;;0.10;0.10;;;3.80;84.90;;;;;;4993617;28;20035;-84
2020/12/25 01:48:53;;;;;;;0.23;0.13;;;3.80;84.80;;;;;;4994049;28;20325;-85
2020/12/25 01:51:19;;;;;;;0.03;0.00;;;3.80;84.80;;;;;;4993414;28;20030;-85
2020/12/25 01:53:46;;;;;;;0.23;0.10;;;3.70;84.80;;;;;;4960810;28;21381;-85
2020/12/25 01:56:12;;;;;;;0.00;0.00;;;3.80;84.90;;;;;;4974390;28;20041;-85
2020/12/25 01:58:39;;;;;;;0.23;0.10;;;3.80;85.00;;;;;;4991876;28;20030;-84
2020/12/25 02:01:05;;;;;;;0.00;0.00;;;3.80;84.80;;;;;;4992306;28;20065;-85
2020/12/25 02:03:31;;;;;;;0.13;0.13;;;3.80;84.90;;;;;;4983862;28;20030;-84
2020/12/25 02:05:58;;;;;;;0.73;0.17;;;3.80;84.90;;;;;;4975059;28;20042;-85
2020/12/25 02:08:24;;;;;;;0.60;0.20;;;3.80;84.90;;;;;;4973856;28;20039;-84
2020/12/25 02:10:51;;;;;;;0.13;0.10;;;3.80;84.90;;;;;;4974844;28;20047;-85
2020/12/25 02:13:17;;;;;;;0.00;0.00;;;3.80;84.80;;;;;;4986697;28;20333;-84
2020/12/25 02:15:43;;;;;;;0.00;0.00;;;3.80;84.90;;;;;;4995395;28;20033;-84
2020/12/25 02:18:10;;;;;;;0.47;0.17;;;3.80;84.80;;;;;;4998052;28;20290;-85
2020/12/25 02:20:37;;;;;;;0.00;0.00;;;3.80;84.80;;;;;;4996370;28;20050;-84
2020/12/25 02:23:04;;;;;;;0.20;0.10;;;3.80;84.80;;;;;;5010775;28;20038;-85
2020/12/25 02:25:30;;;;;;;0.83;0.30;;;3.80;84.80;;;;;;4997201;28;20034;-84
2020/12/25 02:27:57;;;;;;;0.00;0.00;;;3.80;84.80;;;;;;4986277;28;20030;-85
2020/12/25 02:30:23;;;;;;;0.00;0.00;;;3.80;84.80;;;;;;4996858;28;20085;-84
2020/12/25 02:32:50;;;;;;;0.00;0.00;;;3.80;84.90;;;;;;4980358;28;20038;-84
2020/12/25 02:35:17;;;;;;;0.30;0.00;;;3.80;84.90;;;;;;4997953;28;20027;-85
2020/12/25 02:37:43;;;;;;;0.00;0.00;;;3.80;84.80;;;;;;4985653;28;20035;-84
2020/12/25 02:40:10;;;;;;;4.53;0.10;;;3.70;84.80;;;;;;4996917;28;20022;-84
2020/12/25 02:42:37;;;;;;;0.20;0.00;;;3.70;84.80;;;;;;4997680;28;20057;-84
2020/12/25 02:45:05;;;;;;;0.00;0.00;;;3.70;84.80;;;;;;4995581;28;20049;-85
2020/12/25 02:47:31;;;;;;;0.10;0.03;;;3.80;84.90;;;;;;4996388;28;20030;-86
2020/12/25 02:49:59;;;;;;;0.00;0.00;;;3.80;84.80;;;;;;4996589;28;20057;-84
2020/12/25 02:52:25;;;;;;;0.00;0.00;;;3.70;84.80;;;;;;4996806;28;20417;-85
2020/12/25 02:54:52;;;;;;;0.00;0.00;;;3.80;84.80;;;;;;4996717;28;20314;-84
2020/12/25 02:57:22;;;;;;;0.30;0.00;;;3.70;84.80;;;;;;4981651;28;20031;-84
2020/12/25 02:59:49;;;;;;;0.00;0.00;;;3.80;84.80;;;;;;4996903;28;20030;-84
2020/12/25 03:02:16;;;;;;;0.00;0.00;;;3.80;84.70;;;;;;4995089;28;20057;-84
2020/12/25 03:04:43;;;;;;;0.00;0.00;;;3.80;84.60;;;;;;4991733;28;20202;-84
2020/12/25 03:07:10;;;;;;;0.00;0.00;;;3.80;84.50;;;;;;4977667;28;20042;-85
2020/12/25 03:09:38;;;;;;;0.00;0.00;;;3.80;84.40;;;;;;4982058;28;20030;-85
2020/12/25 03:12:04;;;;;;;0.10;0.10;;;3.90;84.50;;;;;;4997494;28;20336;-85
2020/12/25 03:14:31;;;;;;;0.00;0.00;;;3.90;84.40;;;;;;4995280;28;20042;-84
2020/12/25 03:16:57;;;;;;;0.03;0.00;;;3.90;84.40;;;;;;4996102;28;20038;-85
2020/12/25 03:19:24;;;;;;;0.00;0.00;;;3.80;84.40;;;;;;4991351;28;20022;-84
2020/12/25 03:21:51;;;;;;;0.10;0.03;;;3.80;84.30;;;;;;4976044;28;20031;-85
2020/12/25 03:24:17;;;;;;;0.20;0.10;;;3.90;84.40;;;;;;4995116;28;20344;-85
2020/12/25 03:26:43;;;;;;;0.00;0.00;;;3.90;84.30;;;;;;4995086;28;20087;-85
2020/12/25 03:29:10;;;;;;;0.00;0.00;;;3.90;84.40;;;;;;4992732;28;21298;-85
2020/12/25 03:31:37;;;;;;;5.00;0.10;;;3.90;84.40;;;;;;4985782;28;20341;-84
2020/12/25 03:34:04;;;;;;;0.10;0.00;;;3.90;84.30;;;;;;4996265;28;20053;-84
2020/12/25 03:36:32;;;;;;;0.00;0.00;;;3.90;84.30;;;;;;4993807;28;20038;-84
2020/12/25 03:38:59;;;;;;;1.17;0.57;;;4.00;84.30;;;;;;4976698;28;20023;-84
2020/12/25 03:41:25;;;;;;;0.00;0.00;;;4.00;84.20;;;;;;4982943;28;20035;-84
2020/12/25 03:43:52;;;;;;;0.00;0.00;;;4.00;84.20;;;;;;4993170;28;20017;-84
2020/12/25 03:46:18;;;;;;;0.37;0.10;;;4.00;84.10;;;;;;5003012;28;20034;-85
2020/12/25 03:48:44;;;;;;;0.00;0.00;;;4.00;84.10;;;;;;4997545;28;20037;-84
2020/12/25 03:51:11;;;;;;;0.00;0.00;;;4.00;84.00;;;;;;4996833;28;20057;-84
2020/12/25 03:53:37;;;;;;;0.00;0.00;;;4.00;84.00;;;;;;4996320;28;20425;-84
2020/12/25 03:56:04;;;;;;;0.00;0.00;;;4.00;84.00;;;;;;4996172;28;20034;-85
2020/12/25 03:58:31;;;;;;;0.00;0.00;;;4.10;84.10;;;;;;4987286;28;20034;-84
2020/12/25 04:00:57;;;;;;;0.40;0.30;;;4.10;84.00;;;;;;4992607;28;20034;-84
2020/12/25 04:03:25;;;;;;;0.00;0.00;;;4.10;84.00;;;;;;4995802;28;20026;-83
2020/12/25 04:05:51;;;;;;;0.00;0.00;;;4.10;84.00;;;;;;4975061;28;20034;-84
2020/12/25 04:08:17;;;;;;;0.00;0.00;;;4.10;84.00;;;;;;4977875;28;20042;-84
2020/12/25 04:10:45;;;;;;;0.00;0.00;;;4.10;84.00;;;;;;4997289;28;20687;-84
2020/12/25 04:13:11;;;;;;;0.00;0.00;;;4.10;84.10;;;;;;4997150;28;20034;-84
2020/12/25 04:15:39;;;;;;;0.00;0.00;;;4.10;84.00;;;;;;4995336;28;20453;-84
2020/12/25 04:18:05;;;;;;;0.00;0.00;;;4.10;84.10;;;;;;4988011;28;20331;-84
2020/12/25 04:20:31;;;;;;;0.33;0.27;;;4.10;84.10;;;;;;4967463;28;20049;-84
2020/12/25 04:22:58;;;;;;;0.27;0.20;;;4.10;84.10;;;;;;4979475;28;20023;-84
2020/12/25 04:25:24;;;;;;;1.23;0.10;;;4.10;84.10;;;;;;4995821;28;20345;-84
2020/12/25 04:27:51;;;;;;;0.00;0.00;;;4.10;84.10;;;;;;4978790;28;20043;-84
2020/12/25 04:30:17;;;;;;;0.00;0.00;;;4.10;84.10;;;;;;4995263;28;20026;-84
2020/12/25 04:32:44;;;;;;;0.10;0.10;;;4.10;84.10;;;;;;4995323;28;20029;-84
2020/12/25 04:35:11;;;;;;;0.00;0.00;;;4.10;84.10;;;;;;4991854;28;20059;-84
2020/12/25 04:37:37;;;;;;;0.00;0.00;;;4.10;84.10;;;;;;4988613;28;20440;-84
2020/12/25 04:40:04;;;;;;;0.00;0.00;;;4.10;84.20;;;;;;4976928;28;20035;-84
2020/12/25 04:42:31;;;;;;;0.00;0.00;;;4.10;84.30;;;;;;4991682;28;20436;-84
2020/12/25 04:44:57;;;;;;;0.00;0.00;;;4.10;84.30;;;;;;4996248;28;20037;-83
2020/12/25 04:47:24;;;;;;;0.00;0.00;;;4.00;84.20;;;;;;4979167;28;20031;-84
2020/12/25 04:49:51;;;;;;;0.00;0.00;;;4.00;84.30;;;;;;4995819;28;20345;-84
2020/12/25 04:52:18;;;;;;;0.30;0.30;;;4.00;84.20;;;;;;4984158;28;20042;-92
2020/12/25 04:54:44;;;;;;;0.00;0.00;;;4.00;84.20;;;;;;4982412;28;20042;-88
2020/12/25 04:57:11;;;;;;;0.07;0.07;;;4.10;84.40;;;;;;4987411;28;20039;-84
2020/12/25 04:59:37;;;;;;;0.00;0.00;;;4.00;84.30;;;;;;4977409;28;20225;-83
2020/12/25 05:02:03;;;;;;;0.00;0.00;;;4.00;84.40;;;;;;4976619;28;20035;-84
2020/12/25 05:04:30;;;;;;;0.00;0.00;;;4.00;84.40;;;;;;4981475;28;20029;-83
2020/12/25 05:06:56;;;;;;;0.00;0.00;;;4.00;84.40;;;;;;4988039;28;20259;-83
2020/12/25 05:09:25;;;;;;;0.33;0.10;;;4.00;84.40;;;;;;4958480;28;20030;-83
2020/12/25 05:11:53;;;;;;;0.00;0.00;;;4.00;84.40;;;;;;4974235;28;20027;-83
2020/12/25 05:14:22;;;;;;;0.20;0.10;;;4.00;84.40;;;;;;4985581;28;20041;-83
2020/12/25 05:16:49;;;;;;;0.00;0.00;;;4.00;84.40;;;;;;4994038;28;20043;-83
2020/12/25 05:19:15;;;;;;;0.00;0.00;;;4.00;85.10;;;;;;4993569;28;20034;-84
2020/12/25 05:21:42;;;;;;;0.00;0.00;;;4.00;85.20;;;;;;4992908;28;20034;-83
2020/12/25 05:24:08;;;;;;;0.00;0.00;;;4.00;84.40;;;;;;4980228;28;20042;-83
2020/12/25 05:26:35;;;;;;;0.00;0.00;;;3.90;84.40;;;;;;4975079;28;20035;-83
2020/12/25 05:29:02;;;;;;;0.00;0.00;;;4.00;84.40;;;;;;4976634;28;20035;-83
2020/12/25 05:31:28;;;;;;;0.00;0.00;;;4.00;84.40;;;;;;4994145;28;20034;-83
2020/12/25 05:33:57;;;;;;;0.00;0.00;;;4.00;84.40;;;;;;4994430;28;20040;-83
2020/12/25 05:36:27;;;;;;;0.07;0.07;;;4.00;84.40;;;;;;4993519;28;20046;-83
2020/12/25 05:38:54;;;;;;;0.00;0.00;;;4.00;84.50;;;;;;4980811;28;20033;-83
2020/12/25 05:41:20;;;;;;;0.00;0.00;;;3.90;84.40;;;;;;4992041;28;20418;-83
2020/12/25 05:43:51;;;;;;;0.00;0.00;;;4.00;84.50;;;;;;4976158;28;20034;-83
2020/12/25 05:46:17;;;;;;;0.10;0.10;;;4.00;84.50;;;;;;4985288;28;20333;-85
2020/12/25 05:48:49;;;;;;;0.00;0.00;;;3.90;84.40;;;;;;4960735;28;20038;-85
2020/12/25 05:51:15;;;;;;;0.00;0.00;;;3.90;84.50;;;;;;4976977;28;20057;-83
2020/12/25 05:53:44;;;;;;;0.00;0.00;;;3.90;84.50;;;;;;4993087;28;20329;-83
2020/12/25 05:56:12;;;;;;;0.10;0.00;;;3.90;84.60;;;;;;4994130;28;20034;-83
2020/12/25 05:58:44;;;;;;;0.00;0.00;;;3.90;84.50;;;;;;4977045;28;20054;-83
2020/12/25 06:01:10;;;;;;;3.00;0.10;;;3.90;84.60;;;;;;4976048;28;20031;-83
2020/12/25 06:03:37;;;;;;;0.00;0.00;;;3.90;84.50;;;;;;4993564;28;20341;-83
2020/12/25 06:06:12;;;;;;;0.00;0.00;;;3.90;84.50;;;;;;4992851;28;20130;-83
2020/12/25 06:08:47;;;;;;;0.00;0.00;;;3.90;84.60;;;;;;4974878;28;20027;-83
2020/12/25 06:11:14;;;;;;;0.00;0.00;;;3.90;84.50;;;;;;4989720;28;20050;-83
2020/12/25 06:13:41;;;;;;;0.00;0.00;;;3.90;84.50;;;;;;4989409;28;20031;-83
2020/12/25 06:16:12;;;;;;;1.40;0.30;;;3.90;84.40;;;;;;4974248;28;20039;-84
2020/12/25 06:18:59;;;;;;;0.00;0.00;;;4.00;84.50;;;;;;4989089;28;20548;-85
2020/12/25 06:21:56;;;;;;;0.23;0.00;;;4.00;84.50;;;;;;4989484;28;20031;-83
2020/12/25 06:24:36;;;;;;;0.00;0.00;;;4.00;84.50;;;;;;4974042;28;20345;-83
2020/12/25 06:27:03;;;;;;;0.00;0.00;;;4.00;84.60;;;;;;4974401;28;20050;-83
2020/12/25 06:29:30;;;;;;;2.20;0.53;;;3.90;84.60;;;;;;4999025;28;20102;-83
2020/12/25 06:31:57;;;;;;;0.13;0.00;;;3.90;84.60;;;;;;4992215;28;20031;-83
2020/12/25 06:34:44;;;;;;;0.00;0.00;;;3.90;84.70;;;;;;4993082;28;20030;-83
2020/12/25 06:37:13;;;;;;;0.00;0.00;;;3.90;84.80;;;;;;4985971;28;20054;-86
2020/12/25 06:39:53;;;;;;;0.00;0.00;;;3.90;84.90;;;;;;5010713;28;20329;-85
2020/12/25 06:42:32;;;;;;;0.00;0.00;;;3.90;84.90;;;;;;5012196;28;20317;-86
2020/12/25 06:45:04;;;;;;;0.00;0.00;;;3.90;84.90;;;;;;5005802;28;20026;-83
2020/12/25 06:47:34;;;;;;;0.00;0.00;;;3.90;84.90;;;;;;5030069;28;20030;-83
2020/12/25 06:50:14;;;;;;;0.00;0.00;;;3.90;84.90;;;;;;4997930;28;20045;-85
2020/12/25 06:52:54;;;;;;;0.00;0.00;;;3.90;84.90;;;;;;5029053;28;20029;-83
2020/12/25 06:55:21;;;;;;;0.67;0.67;;;3.90;84.80;;;;;;5015076;28;20033;-86
2020/12/25 06:57:52;;;;;;;0.00;0.00;;;3.90;84.80;;;;;;5013907;28;20336;-88
2020/12/25 07:00:20;;;;;;;0.00;0.00;;;3.90;84.70;;;;;;5010794;28;20021;-89
2020/12/25 07:02:46;;;;;;;0.00;0.00;;;3.90;84.80;;;;;;5013836;28;20037;-84
2020/12/25 07:05:12;;;;;;;0.00;0.00;;;3.90;84.70;;;;;;4998797;28;20022;-86
2020/12/25 07:07:39;;;;;;;0.47;0.23;;;3.90;84.70;;;;;;5006700;28;20026;-84
2020/12/25 07:10:10;;;;;;;0.00;0.00;;;3.90;84.70;;;;;;5016265;28;20029;-84
2020/12/25 07:12:36;;;;;;;0.00;0.00;;;4.00;84.70;;;;;;5014640;28;20036;-83
2020/12/25 07:15:03;;;;;;;0.00;0.00;;;4.00;84.50;;;;;;5013152;28;20029;-83
2020/12/25 07:17:29;;;;;;;0.00;0.00;;;4.10;84.50;;;;;;5015404;28;20018;-83
2020/12/25 07:19:56;;;;;;;0.00;0.00;;;4.10;84.30;;;;;;4996010;28;20034;-84
2020/12/25 07:22:22;;;;;;;0.00;0.00;;;4.10;84.30;;;;;;5013418;28;20041;-83
2020/12/25 07:24:49;;;;;;;0.17;0.17;;;4.20;84.30;;;;;;4977797;28;20037;-83
2020/12/25 07:27:15;;;;;;;0.00;0.00;;;4.20;84.10;;;;;;4994989;28;20451;-83
2020/12/25 07:29:42;;;;;;;0.03;0.00;;;4.30;84.00;;;;;;5013307;28;20432;-84
2020/12/25 07:32:09;;;;;;;0.00;0.00;;;4.30;83.90;;;;;;4989725;28;20030;-88
2020/12/25 07:34:36;;;;;;;0.00;0.00;;;4.40;83.90;;;;;;5008291;28;20034;-84
2020/12/25 07:37:03;;;;;;;0.00;0.00;;;4.40;83.70;;;;;;5012464;28;20041;-85
2020/12/25 07:39:30;;;;;;;0.00;0.00;;;4.50;83.70;;;;;;5011870;28;20026;-86
2020/12/25 07:41:56;;;;;;;0.00;0.00;;;4.50;83.60;;;;;;4991161;28;20040;-84
2020/12/25 07:44:23;;;;;;;1.27;0.83;;;4.60;83.60;;;;;;5013318;28;20332;-84
2020/12/25 07:46:50;;;;;;;0.00;0.00;;;4.60;83.60;;;;;;5010360;28;20033;-84
2020/12/25 07:49:18;;;;;;;0.10;0.10;;;4.60;83.60;;;;;;5011664;28;20316;-85
2020/12/25 07:51:47;;;;;;;0.00;0.00;;;4.60;83.50;;;;;;4995098;28;20045;-89
2020/12/25 07:54:14;;;;;;;0.00;0.00;;;4.70;83.50;;;;;;4997810;28;20432;-91
2020/12/25 07:56:40;;;;;;;0.20;0.00;;;4.70;83.50;;;;;;5013901;28;20253;-85
2020/12/25 07:59:06;;;;;;;0.40;0.30;;;4.70;83.50;;;;;;5011030;28;20030;-84
2020/12/25 08:01:33;;;;;;;0.00;0.00;;;4.70;83.60;;;;;;5010158;28;20045;-84
2020/12/25 08:04:00;;;;;;;0.00;0.00;;;4.70;83.70;;;;;;5005328;28;20153;-84
2020/12/25 08:06:27;;;;;;;0.00;0.00;;;4.70;83.80;;;;;;5014993;28;20025;-84
2020/12/25 08:09:00;;;;;;;0.00;0.00;;;4.60;83.90;;;;;;4993746;28;20030;-85
2020/12/25 08:11:27;;;;;;;0.10;0.00;;;4.60;84.00;;;;;;5010617;28;20030;-84
2020/12/25 08:13:56;;;;;;;0.70;0.10;;;4.60;84.10;;;;;;5011573;28;20169;-84
2020/12/25 08:16:23;;;;;;;0.00;0.00;;;4.60;84.00;;;;;;5010776;28;20327;-85
2020/12/25 08:18:49;;;;;;;0.00;0.00;;;4.70;84.00;;;;;;4994412;28;20038;-84
2020/12/25 08:21:17;;;;;;;0.83;0.20;;;4.70;83.90;;;;;;5014603;28;20052;-85
2020/12/25 08:23:43;;;;;;;0.30;0.23;;;4.70;83.90;;;;;;5010864;28;20025;-85
2020/12/25 08:26:09;;;;;;;0.00;0.00;;;4.70;84.00;;;;;;5005867;28;20041;-84
2020/12/25 08:28:36;;;;;;;0.00;0.00;;;4.60;84.00;;;;;;5009146;28;20038;-84
2020/12/25 08:31:15;;;;;;;0.00;0.00;;;4.60;84.20;;;;;;5010472;28;20049;-84
2020/12/25 08:33:41;;;;;;;0.17;0.17;;;4.60;84.20;;;;;;5004209;28;20021;-87
2020/12/25 08:36:11;;;;;;;0.00;0.00;;;4.60;84.30;;;;;;4995899;28;20034;-85
2020/12/25 08:38:43;;;;;;;0.00;0.00;;;4.60;84.30;;;;;;4990432;28;20031;-87
2020/12/25 08:41:10;;;;;;;0.03;0.00;;;4.60;84.40;;;;;;5009448;28;20029;-85
2020/12/25 08:43:36;;;;;;;0.00;0.00;;;4.60;84.40;;;;;;5012125;28;20034;-85
2020/12/25 08:46:03;;;;;;;0.10;0.10;;;4.60;84.40;;;;;;4990318;28;20038;-83
2020/12/25 08:48:34;;;;;;;0.10;0.00;;;4.60;84.50;;;;;;5002147;28;20023;-84
2020/12/25 08:51:13;;;;;;;0.00;0.00;;;4.60;84.50;;;;;;4986414;28;20038;-84
2020/12/25 08:53:48;;;;;;;0.00;0.00;;;4.60;84.40;;;;;;5011261;28;20033;-85
2020/12/25 08:56:19;;;;;;;0.00;0.00;;;4.60;84.40;;;;;;4975873;28;20444;-85
2020/12/25 08:59:05;;;;;;;0.00;0.00;;;4.60;84.30;;;;;;4995701;28;20040;-85
2020/12/25 09:01:32;;;;;;;0.00;0.00;;;4.70;84.30;;;;;;5002836;28;20038;-92
2020/12/25 09:03:59;;;;;;;0.00;0.00;;;4.70;84.20;;;;;;4988277;28;20056;-84
2020/12/25 09:06:25;;;;;;;0.00;0.00;;;4.70;84.00;;;;;;5012362;28;20420;-83
2020/12/25 09:08:52;;;;;;;0.00;0.00;;;4.80;83.90;;;;;;4989356;28;20053;-84
2020/12/25 09:11:20;;;;;;;0.00;0.00;;;4.80;83.80;;;;;;4947122;28;20031;-85
2020/12/25 09:13:46;;;;;;;0.10;0.10;;;4.90;83.70;;;;;;5012260;28;20439;-86
2020/12/25 09:16:13;;;;;;;0.00;0.00;;;4.90;83.60;;;;;;5009931;28;20026;-84
2020/12/25 09:18:39;;;;;;;0.00;0.00;;;4.90;83.60;;;;;;5008505;28;20026;-85
2020/12/25 09:21:10;;;;;;;0.00;0.00;;;5.00;83.60;;;;;;4971316;28;20038;-85
2020/12/25 09:23:37;;;;;;;1.83;0.35;;;5.00;83.50;;;;;;4976591;28;20050;-90
2020/12/25 09:26:03;;;;;;;0.00;0.00;;;5.00;83.40;;;;;;4986595;28;20044;-92
2020/12/25 09:28:30;;;;;;;0.00;0.00;;;5.10;83.30;;;;;;5007833;28;20464;-91
2020/12/25 09:30:56;;;;;;;0.57;0.17;;;5.10;83.20;;;;;;4993682;28;20357;-86
2020/12/25 09:33:24;;;;;;;0.00;0.00;;;5.20;83.20;;;;;;4986063;28;20030;-85
2020/12/25 09:36:00;;;;;;;0.00;0.00;;;5.20;83.20;;;;;;4981424;28;20045;-85
2020/12/25 09:38:31;;;;;;;0.00;0.00;;;5.30;83.10;;;;;;5012388;28;20033;-85
2020/12/25 09:40:57;;;;;;;0.00;0.00;;;5.30;82.90;;;;;;4988911;28;20037;-84
2020/12/25 09:43:46;;;;;;;0.60;0.10;;;5.40;82.80;;;;;;5014876;28;20037;-84
2020/12/25 09:46:16;;;;;;;10.40;0.33;;;5.50;82.70;;;;;;5015813;28;20027;-84
2020/12/25 09:48:49;;;;;;;0.00;0.00;;;5.50;82.50;;;;;;5001309;28;20034;-84
2020/12/25 09:51:24;;;;;;;0.20;0.10;;;5.60;82.40;;;;;;5009333;28;20041;-85
2020/12/25 09:53:55;;;;;;;0.00;0.00;;;5.70;82.30;;;;;;5019331;28;20041;-88
2020/12/25 09:56:21;;;;;;;0.20;0.00;;;5.80;82.30;;;;;;4999390;28;20156;-85
2020/12/25 09:58:48;;;;;;;0.03;0.03;;;6.10;81.80;;;;;;5017236;28;20029;-86
2020/12/25 10:01:14;;;;;;;0.00;0.00;;;6.20;81.30;;;;;;5020308;28;20033;-85
2020/12/25 10:03:40;;;;;;;0.57;0.07;;;6.20;81.40;;;;;;4999793;28;20034;-85
2020/12/25 10:06:07;;;;;;;0.00;0.00;;;6.20;81.40;;;;;;4992888;28;20037;-85
2020/12/25 10:08:33;;;;;;;0.00;0.00;;;6.30;81.40;;;;;;5008303;28;20033;-85
2020/12/25 10:11:00;;;;;;;0.00;0.00;;;6.30;81.20;;;;;;5010933;28;20038;-85
2020/12/25 10:13:34;;;;;;;0.00;0.00;;;6.40;81.30;;;;;;4998972;28;20022;-86
2020/12/25 10:16:04;;;;;;;0.13;0.00;;;6.40;81.30;;;;;;4999952;28;20041;-84
2020/12/25 10:18:32;;;;;;;0.00;0.00;;;6.40;81.30;;;;;;4999877;28;20042;-85
2020/12/25 10:20:58;;;;;;;0.30;0.30;;;6.40;81.40;;;;;;4995819;28;20316;-85
2020/12/25 10:23:25;;;;;;;0.10;0.10;;;6.40;81.30;;;;;;5001544;28;20034;-84
2020/12/25 10:25:54;;;;;;;0.23;0.20;;;6.50;81.30;;;;;;4995668;28;20033;-85
2020/12/25 10:28:21;;;;;;;0.83;0.17;;;6.70;81.10;;;;;;4989546;28;20049;-87
2020/12/25 10:30:47;;;;;;;0.00;0.00;;;6.90;80.50;;;;;;4979100;28;20340;-85
2020/12/25 10:33:14;;;;;;;0.10;0.00;;;6.90;80.20;;;;;;4979558;28;20043;-85
2020/12/25 10:35:40;;;;;;;0.00;0.00;;;7.00;80.10;;;;;;4998544;28;20034;-86
2020/12/25 10:38:06;;;;;;;3.40;0.37;;;7.10;79.90;;;;;;4998313;28;20047;-89
2020/12/25 10:40:33;;;;;;;0.00;0.00;;;7.20;79.70;;;;;;4994540;28;20433;-85
2020/12/25 10:42:59;;;;;;;0.07;0.07;;;7.20;79.70;;;;;;4988263;28;20030;-84
2020/12/25 10:45:25;;;;;;;0.20;0.10;;;7.20;79.70;;;;;;4997170;28;20022;-89
2020/12/25 10:47:52;;;;;;;0.00;0.00;;;7.10;80.10;;;;;;4983500;28;20562;-85
2020/12/25 10:50:18;;;;;;;0.10;0.10;;;7.00;80.20;;;;;;5001268;28;20027;-85
2020/12/25 10:52:44;;;;;;;0.00;0.00;;;7.10;80.30;;;;;;4998184;28;20046;-85
2020/12/25 10:55:12;;;;;;;0.07;0.00;;;7.30;80.10;;;;;;4998220;28;20045;-87
2020/12/25 10:57:39;;;;;;;0.30;0.03;;;7.40;79.80;;;;;;4997236;28;20026;-86
2020/12/25 11:00:05;;;;;;;0.00;0.00;;;7.50;79.70;;;;;;4972164;28;20047;-88
2020/12/25 11:02:31;;;;;;;0.00;0.00;;;7.60;79.60;;;;;;4977626;28;20034;-88
2020/12/25 11:04:58;;;;;;;0.00;0.00;;;7.70;79.50;;;;;;4980703;28;20030;-88
2020/12/25 11:07:24;;;;;;;0.10;0.10;;;7.80;79.30;;;;;;4987403;28;20031;-88
2020/12/25 11:09:50;;;;;;;1.47;1.10;;;7.90;79.20;;;;;;4975956;28;20046;-92
2020/12/25 11:12:17;;;;;;;0.30;0.20;;;8.00;79.10;;;;;;4980202;28;20049;-87
2020/12/25 11:14:43;;;;;;;0.20;0.20;;;8.10;79.00;;;;;;4980388;28;20038;-87
2020/12/25 11:17:10;;;;;;;0.00;0.00;;;8.20;78.80;;;;;;4996299;28;20054;-87
2020/12/25 11:19:37;;;;;;;1.08;0.22;;;8.30;78.70;;;;;;4997320;28;20322;-90
2020/12/25 11:22:04;;;;;;;0.40;0.00;;;8.50;78.50;;;;;;4977094;28;20460;-87
2020/12/25 11:24:30;;;;;;;0.00;0.00;;;8.80;77.90;;;;;;4964476;28;20456;-88
2020/12/25 11:26:57;;;;;;;0.50;0.40;;;8.90;77.40;;;;;;4994851;28;20046;-89
2020/12/25 11:29:23;;;;;;;0.00;0.00;;;8.80;77.50;;;;;;4996006;28;20045;-89
2020/12/25 11:31:49;;;;;;;0.00;0.00;;;8.80;77.70;;;;;;4963498;28;20038;-92
2020/12/25 11:34:16;;;;;;;0.00;0.00;;;8.90;77.80;;;;;;4995668;28;20345;-89
2020/12/25 11:36:42;;;;;;;1.90;0.25;;;9.00;77.60;;;;;;4993388;28;20448;-87
2020/12/25 11:39:08;;;;;;;0.10;0.00;;;9.10;77.50;;;;;;4997397;28;20469;-88
2020/12/25 11:41:35;;;;;;;0.10;0.00;;;9.00;77.10;;;;;;4997616;28;20405;-87
2020/12/25 11:44:01;;;;;;;0.10;0.10;;;8.90;77.50;;;;;;4980075;28;20027;-85
2020/12/25 11:46:28;;;;;;;0.47;0.30;;;8.80;77.80;;;;;;4964252;28;20034;-86
2020/12/25 11:48:54;;;;;;;0.00;0.00;;;8.80;78.00;;;;;;5000112;28;20031;-85
2020/12/25 11:51:21;;;;;;;0.00;0.00;;;9.10;77.70;;;;;;4981663;28;20041;-89
2020/12/25 11:53:48;;;;;;;14.02;0.38;;;9.20;77.00;;;;;;5000774;28;20034;-85
2020/12/25 11:56:18;;;;;;;0.10;0.00;;;9.30;76.50;;;;;;4996247;28;20034;-85
2020/12/25 11:58:51;;;;;;;0.00;0.00;;;9.20;76.70;;;;;;5002353;28;20392;-87
2020/12/25 12:01:18;;;;;;;0.00;0.00;;;9.10;76.80;;;;;;5003670;28;20030;-87
2020/12/25 12:03:44;;;;;;;0.03;0.00;;;9.20;76.80;;;;;;4982698;28;20034;-89
2020/12/25 12:06:10;;;;;;;0.00;0.00;;;9.00;76.60;;;;;;4995528;28;20029;-84
2020/12/25 12:08:37;;;;;;;0.38;0.10;;;8.60;77.20;;;;;;4995297;28;20027;-86
2020/12/25 12:11:04;;;;;;;0.00;0.00;;;8.30;77.80;;;;;;4980297;28;20118;-86
2020/12/25 12:13:30;;;;;;;0.00;0.00;;;8.30;78.50;;;;;;4980413;28;20046;-86
2020/12/25 12:15:56;;;;;;;0.00;0.00;;;8.30;78.20;;;;;;4995823;28;20045;-85
2020/12/25 12:18:23;;;;;;;0.10;0.00;;;8.20;78.30;;;;;;4995756;28;20050;-89
2020/12/25 12:20:49;;;;;;;0.00;0.00;;;8.10;78.30;;;;;;5010819;28;20038;-86
2020/12/25 12:23:15;;;;;;;0.00;0.00;;;8.10;78.30;;;;;;5016023;28;20041;-89
2020/12/25 12:25:42;;;;;;;0.00;0.00;;;8.00;78.00;;;;;;5014053;28;20048;-86
2020/12/25 12:28:08;;;;;;;0.08;0.00;;;7.90;78.10;;;;;;4976610;28;20461;-88
2020/12/25 12:30:35;;;;;;;3.30;0.53;;;8.00;78.20;;;;;;4990240;28;20038;-84
2020/12/25 12:33:01;;;;;;;0.00;0.00;;;7.90;77.80;;;;;;4995699;28;20045;-84
2020/12/25 12:35:27;;;;;;;0.00;0.00;;;7.90;77.80;;;;;;4995013;28;20328;-84
2020/12/25 12:37:54;;;;;;;0.00;0.00;;;7.90;77.90;;;;;;4978104;28;20043;-86
2020/12/25 12:40:20;;;;;;;0.00;0.00;;;8.00;77.70;;;;;;4995861;28;20026;-85
2020/12/25 12:42:46;;;;;;;0.00;0.00;;;8.00;77.60;;;;;;4995384;28;20030;-87
2020/12/25 12:45:13;;;;;;;4.00;0.15;;;8.20;77.30;;;;;;4994466;28;20034;-84
2020/12/25 12:47:39;;;;;;;0.00;0.00;;;8.30;76.60;;;;;;4995563;28;20425;-85
2020/12/25 12:50:06;;;;;;;0.00;0.00;;;8.30;76.50;;;;;;4979031;28;20034;-87
2020/12/25 12:52:32;;;;;;;0.52;0.25;;;8.30;76.70;;;;;;4982736;28;20034;-87
2020/12/25 12:54:59;;;;;;;0.13;0.10;;;8.30;76.70;;;;;;4976568;28;20030;-86
2020/12/25 12:57:26;;;;;;;0.00;0.00;;;8.30;76.70;;;;;;4974701;28;20027;-87
2020/12/25 12:59:53;;;;;;;0.00;0.00;;;8.30;76.30;;;;;;4976371;28;20041;-88